createdAt,value
2017-10-13T00:02:35.959Z,4.27
2017-10-13T00:05:06.185Z,3.80
2017-10-13T00:07:36.020Z,5.63
2017-10-13T00:10:05.377Z,3.60
2017-10-13T00:12:34.603Z,3.73
2017-10-13T00:15:03.813Z,3.67
2017-10-13T00:17:33.033Z,3.27
2017-10-13T00:20:02.524Z,2.97
2017-10-13T00:22:32.978Z,7.07
2017-10-13T00:25:02.332Z,8.00
2017-10-13T00:27:32.085Z,3.30
2017-10-13T00:30:01.548Z,2.27
2017-10-13T00:32:31.587Z,1.70
2017-10-13T00:35:01.054Z,2.23
2017-10-13T00:37:30.449Z,2.10
2017-10-13T00:39:59.721Z,2.97
2017-10-13T00:42:29.155Z,2.33
2017-10-13T00:44:58.281Z,2.10
2017-10-13T00:47:27.823Z,2.40
2017-10-13T00:49:57.214Z,2.30
2017-10-13T00:52:26.584Z,2.43
2017-10-13T00:54:56.663Z,3.63
2017-10-13T00:57:26.106Z,2.93
2017-10-13T00:59:56.325Z,2.53
2017-10-13T01:02:26.375Z,3.50
2017-10-13T01:04:55.836Z,3.70
2017-10-13T01:07:25.234Z,3.00
2017-10-13T01:09:55.454Z,3.23
2017-10-13T01:12:24.634Z,3.63
2017-10-13T01:14:53.821Z,3.10
2017-10-13T01:17:23.266Z,2.83
2017-10-13T01:19:53.497Z,2.63
2017-10-13T01:22:23.894Z,1.70
2017-10-13T01:24:54.634Z,1.90
2017-10-13T01:27:25.241Z,1.90
2017-10-13T01:29:55.206Z,2.17
2017-10-13T01:32:24.469Z,2.30
2017-10-13T01:34:54.273Z,1.80
2017-10-13T01:37:23.487Z,1.70
2017-10-13T01:39:56.801Z,1.43
2017-10-13T01:42:26.945Z,1.80
2017-10-13T01:44:59.039Z,1.87
2017-10-13T01:47:34.562Z,2.10
2017-10-13T01:50:05.147Z,2.30
2017-10-13T01:52:34.419Z,2.03
2017-10-13T01:55:03.740Z,3.00
2017-10-13T01:57:33.058Z,2.30
2017-10-13T02:00:04.972Z,2.70
2017-10-13T02:02:35.026Z,2.07
2017-10-13T02:05:04.307Z,2.00
2017-10-13T02:07:34.569Z,2.30
2017-10-13T02:10:03.979Z,2.27
2017-10-13T02:12:34.950Z,1.83
2017-10-13T02:15:05.094Z,2.60
2017-10-13T02:17:35.455Z,2.03
2017-10-13T02:20:04.778Z,2.87
2017-10-13T02:22:34.735Z,2.83
2017-10-13T02:25:04.842Z,2.30
2017-10-13T02:27:34.001Z,2.20
2017-10-13T02:30:04.071Z,4.10
2017-10-13T02:32:34.754Z,3.80
2017-10-13T02:35:03.944Z,3.10
2017-10-13T02:37:33.186Z,2.87
2017-10-13T02:40:02.841Z,4.10
2017-10-13T02:42:32.151Z,3.77
2017-10-13T02:45:01.318Z,5.30
2017-10-13T02:47:30.841Z,5.30
2017-10-13T02:50:00.060Z,3.80
2017-10-13T02:52:29.396Z,6.60
2017-10-13T02:54:58.968Z,4.80
2017-10-13T02:57:28.615Z,5.30
2017-10-13T02:59:57.500Z,3.43
2017-10-13T03:02:26.697Z,2.90
2017-10-13T03:04:55.913Z,2.90
2017-10-13T03:07:25.520Z,2.73
2017-10-13T03:09:55.757Z,3.57
2017-10-13T03:12:25.277Z,3.00
2017-10-13T03:14:54.536Z,3.50
2017-10-13T03:17:23.798Z,4.90
2017-10-13T03:19:52.561Z,3.80
2017-10-13T03:22:21.249Z,4.90
2017-10-13T03:24:50.420Z,4.53
2017-10-13T03:27:21.561Z,5.50
2017-10-13T03:29:51.018Z,5.90
2017-10-13T03:32:21.486Z,6.00
2017-10-13T03:34:51.100Z,6.80
2017-10-13T03:37:20.238Z,6.30
2017-10-13T03:39:49.832Z,9.50
2017-10-13T03:42:19.049Z,8.77
2017-10-13T03:44:49.034Z,6.27
2017-10-13T03:47:18.461Z,5.77
2017-10-13T03:49:48.900Z,6.03
2017-10-13T03:52:17.654Z,6.73
2017-10-13T03:54:47.034Z,5.47
2017-10-13T03:57:16.158Z,4.03
2017-10-13T03:59:46.360Z,5.40
2017-10-13T04:02:16.077Z,4.33
2017-10-13T04:04:45.321Z,5.73
2017-10-13T04:07:14.901Z,5.77
2017-10-13T04:09:43.826Z,5.67
2017-10-13T04:12:14.197Z,5.60
2017-10-13T04:14:43.679Z,5.90
2017-10-13T04:17:13.835Z,5.60
2017-10-13T04:19:42.933Z,7.40
2017-10-13T04:22:12.850Z,10.90
2017-10-13T04:24:41.910Z,19.80
2017-10-13T04:27:11.106Z,13.67
2017-10-13T04:29:40.843Z,75.03
2017-10-13T04:32:10.296Z,108.65
2017-10-13T04:34:40.564Z,78.97
2017-10-13T04:37:09.550Z,67.23
2017-10-13T04:39:39.056Z,65.20
2017-10-13T04:42:08.197Z,51.80
2017-10-13T04:44:37.445Z,41.75
2017-10-13T04:47:06.853Z,44.45
2017-10-13T04:49:36.352Z,55.15
2017-10-13T04:52:05.681Z,61.67
2017-10-13T04:54:34.534Z,23.87
2017-10-13T04:57:03.212Z,18.20
2017-10-13T04:59:32.657Z,13.62
2017-10-13T05:02:01.435Z,12.93
2017-10-13T05:04:30.829Z,11.75
2017-10-13T05:07:00.038Z,10.27
2017-10-13T05:09:29.568Z,10.50
2017-10-13T05:11:59.077Z,10.00
2017-10-13T05:14:28.512Z,10.27
2017-10-13T05:16:58.036Z,12.07
2017-10-13T05:19:27.362Z,12.07
2017-10-13T05:21:56.927Z,15.33
2017-10-13T05:24:26.362Z,21.13
2017-10-13T05:26:55.606Z,21.43
2017-10-13T05:29:24.976Z,16.70
2017-10-13T05:31:54.897Z,17.40
2017-10-13T05:34:24.384Z,20.07
2017-10-13T05:36:53.866Z,22.30
2017-10-13T05:39:24.451Z,20.23
2017-10-13T05:41:53.745Z,22.43
2017-10-13T05:44:22.953Z,20.57
2017-10-13T05:46:52.381Z,23.57
2017-10-13T05:49:21.431Z,17.63
2017-10-13T05:51:50.553Z,18.47
2017-10-13T05:54:19.978Z,14.90
2017-10-13T05:56:49.111Z,11.53
2017-10-13T05:59:18.615Z,10.60
2017-10-13T06:01:48.120Z,12.70
2017-10-13T06:04:17.542Z,8.90
2017-10-13T06:06:46.838Z,9.57
2017-10-13T06:09:16.236Z,8.10
2017-10-13T06:11:45.658Z,14.40
2017-10-13T06:14:15.525Z,14.47
2017-10-13T06:16:45.648Z,20.70
2017-10-13T06:19:15.252Z,28.37
2017-10-13T06:21:44.662Z,29.37
2017-10-13T06:24:13.765Z,24.27
2017-10-13T06:26:43.381Z,21.80
2017-10-13T06:29:13.920Z,12.40
2017-10-13T06:31:44.465Z,10.07
2017-10-13T06:34:14.925Z,9.07
2017-10-13T06:36:44.309Z,9.57
2017-10-13T06:39:14.746Z,8.80
2017-10-13T06:41:44.059Z,7.83
2017-10-13T06:44:13.255Z,6.60
2017-10-13T06:46:43.355Z,7.97
2017-10-13T06:49:12.667Z,6.57
2017-10-13T06:51:41.929Z,10.43
2017-10-13T06:54:11.728Z,7.40
2017-10-13T06:56:40.972Z,10.40
2017-10-13T06:59:11.606Z,10.03
2017-10-13T07:01:40.821Z,9.27
2017-10-13T07:04:10.981Z,10.90
2017-10-13T07:06:42.359Z,9.50
2017-10-13T07:09:11.489Z,7.90
2017-10-13T07:11:41.832Z,5.80
2017-10-13T07:14:11.246Z,7.83
2017-10-13T07:16:40.591Z,8.83
2017-10-13T07:19:09.626Z,7.53
2017-10-13T07:21:39.957Z,7.27
2017-10-13T07:24:09.488Z,5.30
2017-10-13T07:26:38.993Z,5.32
2017-10-13T07:29:08.542Z,8.05
2017-10-13T07:31:37.816Z,5.53
2017-10-13T07:34:07.547Z,5.50
2017-10-13T07:36:37.899Z,6.43
2017-10-13T07:39:07.572Z,4.87
2017-10-13T07:41:36.967Z,6.15
2017-10-13T07:44:06.512Z,7.00
2017-10-13T07:46:35.963Z,5.72
2017-10-13T07:49:05.041Z,4.53
2017-10-13T07:51:34.257Z,3.90
2017-10-13T07:54:03.594Z,3.60
2017-10-13T07:56:32.443Z,3.20
2017-10-13T07:59:02.007Z,5.10
2017-10-13T08:01:31.639Z,2.60
2017-10-13T08:04:00.962Z,3.43
2017-10-13T08:06:30.406Z,3.22
2017-10-13T08:08:59.630Z,4.57
2017-10-13T08:11:28.768Z,3.17
2017-10-13T08:13:58.252Z,3.87
2017-10-13T08:16:27.388Z,2.45
2017-10-13T08:18:56.665Z,3.53
2017-10-13T08:21:26.017Z,3.83
2017-10-13T08:23:55.544Z,3.17
2017-10-13T08:26:25.086Z,3.42
2017-10-13T08:28:54.475Z,3.45
2017-10-13T08:31:23.954Z,2.85
2017-10-13T08:33:53.190Z,3.03
2017-10-13T08:36:22.854Z,3.25
2017-10-13T08:38:53.638Z,2.90
2017-10-13T08:41:22.844Z,3.53
2017-10-13T08:43:52.006Z,4.57
2017-10-13T08:46:21.256Z,3.75
2017-10-13T08:48:50.697Z,4.47
2017-10-13T08:51:20.344Z,3.47
2017-10-13T08:53:50.045Z,4.65
2017-10-13T08:56:19.484Z,3.72
2017-10-13T08:58:48.740Z,4.47
2017-10-13T09:01:18.238Z,3.25
2017-10-13T09:03:47.692Z,4.03
2017-10-13T09:06:17.112Z,2.83
2017-10-13T09:08:46.649Z,2.95
2017-10-13T09:11:15.929Z,2.78
2017-10-13T09:13:45.224Z,2.42
2017-10-13T09:16:14.502Z,3.30
2017-10-13T09:18:43.862Z,3.20
2017-10-13T09:21:13.704Z,2.20
2017-10-13T09:23:43.150Z,2.60
2017-10-13T09:26:12.900Z,2.60
2017-10-13T09:28:42.217Z,2.60
2017-10-13T09:31:11.377Z,3.12
2017-10-13T09:33:40.983Z,3.15
2017-10-13T09:36:10.221Z,3.00
2017-10-13T09:38:40.825Z,2.53
2017-10-13T09:41:10.841Z,3.72
2017-10-13T09:43:40.522Z,3.75
2017-10-13T09:46:09.978Z,3.37
2017-10-13T09:48:39.357Z,3.78
2017-10-13T09:51:08.907Z,3.45
2017-10-13T09:53:38.484Z,3.17
2017-10-13T09:56:08.044Z,3.45
2017-10-13T09:58:37.312Z,4.07
2017-10-13T10:01:06.968Z,3.12
2017-10-13T10:03:36.507Z,3.97
2017-10-13T10:06:05.781Z,4.05
2017-10-13T10:08:35.028Z,3.28
2017-10-13T10:11:04.121Z,3.83
2017-10-13T10:13:33.555Z,3.20
2017-10-13T10:16:06.661Z,4.15
2017-10-13T10:18:36.078Z,3.65
2017-10-13T10:21:05.654Z,3.70
2017-10-13T10:23:35.222Z,4.22
2017-10-13T10:26:04.738Z,5.43
2017-10-13T10:28:34.145Z,4.18
2017-10-13T10:31:03.452Z,5.05
2017-10-13T10:33:34.380Z,4.82
2017-10-13T10:36:03.666Z,4.65
2017-10-13T10:38:33.150Z,4.93
2017-10-13T10:41:02.621Z,5.25
2017-10-13T10:43:33.182Z,4.62
2017-10-13T10:46:02.770Z,3.95
2017-10-13T10:48:32.865Z,3.33
2017-10-13T10:51:02.214Z,3.78
2017-10-13T10:53:31.523Z,3.90
2017-10-13T10:56:00.841Z,3.95
2017-10-13T10:58:30.374Z,4.03
2017-10-13T11:00:59.967Z,5.55
2017-10-13T11:03:29.427Z,4.35
2017-10-13T11:05:58.838Z,4.60
2017-10-13T11:08:28.237Z,4.62
2017-10-13T11:10:57.575Z,4.70
2017-10-13T11:13:26.846Z,3.65
2017-10-13T11:15:56.283Z,4.55
2017-10-13T11:18:25.657Z,4.00
2017-10-13T11:20:55.019Z,5.20
2017-10-13T11:23:24.685Z,4.72
2017-10-13T11:25:54.201Z,3.90
2017-10-13T11:28:23.908Z,3.75
2017-10-13T11:30:53.175Z,4.05
2017-10-13T11:33:22.688Z,4.05
2017-10-13T11:35:51.748Z,3.25
2017-10-13T11:38:21.038Z,3.60
2017-10-13T11:40:50.651Z,3.92
2017-10-13T11:43:19.948Z,3.00
2017-10-13T11:45:50.143Z,3.10
2017-10-13T11:48:19.194Z,3.85
2017-10-13T11:50:48.610Z,3.25
2017-10-13T11:53:17.980Z,2.83
2017-10-13T11:55:47.621Z,3.62
2017-10-13T11:58:16.931Z,2.87
2017-10-13T12:00:46.410Z,2.75
2017-10-13T12:03:15.495Z,2.20
2017-10-13T12:05:45.615Z,2.95
2017-10-13T12:08:15.666Z,3.20
2017-10-13T12:10:45.428Z,2.90
2017-10-13T12:13:14.860Z,3.03
2017-10-13T12:15:44.394Z,4.35
2017-10-13T12:18:13.439Z,3.72
2017-10-13T12:20:43.568Z,3.75
2017-10-13T12:23:13.888Z,4.47
2017-10-13T12:25:43.451Z,3.58
2017-10-13T12:28:12.675Z,2.50
2017-10-13T12:30:41.949Z,2.78
2017-10-13T12:33:11.280Z,3.40
2017-10-13T12:35:40.877Z,2.95
2017-10-13T12:38:10.039Z,3.40
2017-10-13T12:40:39.457Z,3.00
2017-10-13T12:43:09.025Z,3.37
2017-10-13T12:45:38.737Z,2.70
2017-10-13T12:48:09.274Z,2.65
2017-10-13T12:50:38.875Z,2.40
2017-10-13T12:53:08.146Z,2.35
2017-10-13T12:55:38.692Z,2.33
2017-10-13T12:58:09.150Z,2.50
2017-10-13T13:00:38.813Z,2.80
2017-10-13T13:03:09.408Z,3.35
2017-10-13T13:05:38.971Z,3.22
2017-10-13T13:08:08.470Z,2.90
2017-10-13T13:10:38.024Z,4.00
2017-10-13T13:13:07.693Z,5.10
2017-10-13T13:15:37.163Z,4.55
2017-10-13T13:18:06.321Z,4.07
2017-10-13T13:20:35.893Z,4.35
2017-10-13T13:23:05.587Z,4.30
2017-10-13T13:25:34.996Z,5.18
2017-10-13T13:28:04.610Z,3.90
2017-10-13T13:30:34.273Z,6.00
2017-10-13T13:33:03.532Z,4.87
2017-10-13T13:35:32.934Z,6.32
2017-10-13T13:38:02.398Z,4.50
2017-10-13T13:40:31.822Z,6.70
2017-10-13T13:43:01.355Z,6.15
2017-10-13T13:45:30.872Z,4.72
2017-10-13T13:48:00.218Z,4.85
2017-10-13T13:50:30.983Z,6.28
2017-10-13T13:53:01.003Z,6.15
2017-10-13T13:55:30.165Z,7.25
2017-10-13T13:57:59.638Z,6.93
2017-10-13T14:00:29.089Z,6.70
2017-10-13T14:02:58.355Z,5.80
2017-10-13T14:05:27.744Z,6.43
2017-10-13T14:07:57.185Z,7.55
2017-10-13T14:10:26.554Z,7.70
2017-10-13T14:12:56.398Z,6.35
2017-10-13T14:15:25.863Z,9.20
2017-10-13T14:17:55.288Z,10.60
2017-10-13T14:20:24.945Z,11.02
2017-10-13T14:22:54.543Z,10.00
2017-10-13T14:25:24.229Z,13.62
2017-10-13T14:27:53.789Z,10.35
2017-10-13T14:30:23.114Z,13.88
2017-10-13T14:32:52.817Z,12.73
2017-10-13T14:35:22.423Z,12.73
2017-10-13T14:37:51.751Z,11.95
2017-10-13T14:40:21.640Z,11.07
2017-10-13T14:42:50.951Z,13.50
2017-10-13T14:45:20.302Z,10.68
2017-10-13T14:47:49.943Z,9.68
2017-10-13T14:50:19.477Z,11.05
2017-10-13T14:52:49.732Z,9.65
2017-10-13T14:55:18.880Z,9.15
2017-10-13T14:57:48.398Z,9.43
2017-10-13T15:00:17.667Z,9.85
2017-10-13T15:02:46.837Z,8.98
2017-10-13T15:05:17.059Z,8.70
2017-10-13T15:07:46.247Z,8.27
2017-10-13T15:10:15.692Z,11.75
2017-10-13T15:12:44.796Z,9.82
2017-10-13T15:15:14.194Z,10.67
2017-10-13T15:17:43.532Z,10.00
2017-10-13T15:20:12.912Z,10.80
2017-10-13T15:22:42.175Z,11.85
2017-10-13T15:25:18.057Z,11.23
2017-10-13T15:27:53.422Z,10.48
2017-10-13T15:30:28.121Z,10.27
2017-10-13T15:33:03.123Z,11.43
2017-10-13T15:35:37.658Z,12.33
2017-10-13T15:38:12.794Z,15.00
2017-10-13T15:40:48.038Z,14.03
2017-10-13T15:43:24.118Z,12.50
2017-10-13T15:45:59.213Z,12.60
2017-10-13T15:48:28.498Z,13.30
2017-10-13T15:51:03.415Z,11.60
2017-10-13T15:53:33.909Z,10.33
2017-10-13T15:56:03.149Z,9.53
2017-10-13T15:58:33.337Z,9.27
2017-10-13T16:01:02.460Z,10.63
2017-10-13T16:03:31.693Z,9.17
2017-10-13T16:06:01.242Z,8.83
2017-10-13T16:08:30.692Z,8.30
2017-10-13T16:11:00.072Z,11.37
2017-10-13T16:13:29.594Z,13.83
2017-10-13T16:15:58.945Z,8.63
2017-10-13T16:18:28.137Z,7.97
2017-10-13T16:20:57.501Z,8.97
2017-10-13T16:23:26.817Z,7.30
2017-10-13T16:25:55.970Z,8.10
2017-10-13T16:28:25.296Z,6.37
2017-10-13T16:30:54.417Z,5.77
2017-10-13T16:33:23.821Z,7.70
2017-10-13T16:35:53.012Z,7.57
2017-10-13T16:38:22.380Z,7.37
2017-10-13T16:40:51.617Z,6.50
2017-10-13T16:43:21.174Z,5.70
2017-10-13T16:45:50.313Z,5.47
2017-10-13T16:48:19.644Z,5.00
2017-10-13T16:50:49.992Z,5.73
2017-10-13T16:53:19.506Z,4.93
2017-10-13T16:55:49.720Z,5.00
2017-10-13T16:58:19.088Z,5.10
2017-10-13T17:00:48.595Z,5.07
2017-10-13T17:03:18.303Z,3.67
2017-10-13T17:05:50.660Z,5.10
2017-10-13T17:08:19.944Z,6.53
2017-10-13T17:10:49.324Z,4.67
2017-10-13T17:13:18.805Z,3.50
2017-10-13T17:15:48.581Z,4.17
2017-10-13T17:18:18.056Z,3.60
2017-10-13T17:20:47.359Z,4.27
2017-10-13T17:23:16.741Z,5.07
2017-10-13T17:25:46.379Z,4.30
2017-10-13T17:28:15.920Z,4.90
2017-10-13T17:30:45.508Z,4.63
2017-10-13T17:33:15.000Z,4.17
2017-10-13T17:35:44.086Z,4.73
2017-10-13T17:38:13.655Z,6.43
2017-10-13T17:40:43.191Z,5.10
2017-10-13T17:43:12.288Z,4.63
2017-10-13T17:45:41.927Z,4.33
2017-10-13T17:48:11.033Z,5.30
2017-10-13T17:50:41.099Z,7.20
2017-10-13T17:53:10.561Z,7.30
2017-10-13T17:55:40.801Z,6.70
2017-10-13T17:58:11.077Z,7.40
2017-10-13T18:00:40.330Z,5.77
2017-10-13T18:03:09.624Z,5.90
2017-10-13T18:05:39.669Z,6.63
2017-10-13T18:08:08.987Z,6.80
2017-10-13T18:10:38.567Z,6.53
2017-10-13T18:13:07.878Z,6.77
2017-10-13T18:15:37.438Z,5.87
2017-10-13T18:18:07.511Z,5.30
2017-10-13T18:20:36.854Z,5.97
2017-10-13T18:23:07.064Z,4.03
2017-10-13T18:25:36.314Z,4.67
2017-10-13T18:28:06.027Z,5.30
2017-10-13T18:30:35.234Z,4.13
2017-10-13T18:33:04.517Z,3.97
2017-10-13T18:35:33.701Z,3.57
2017-10-13T18:38:03.004Z,3.07
2017-10-13T18:40:32.395Z,2.87
2017-10-13T18:43:01.537Z,3.17
2017-10-13T18:45:30.999Z,3.47
2017-10-13T18:48:00.524Z,3.20
2017-10-13T18:50:29.778Z,3.03
2017-10-13T18:52:59.196Z,3.33
2017-10-13T18:55:28.335Z,2.93
2017-10-13T18:57:57.281Z,2.90
2017-10-13T19:00:27.449Z,3.93
2017-10-13T19:02:56.678Z,2.93
2017-10-13T19:05:26.102Z,3.60
2017-10-13T19:08:02.508Z,3.43
2017-10-13T19:10:31.756Z,2.70
2017-10-13T19:13:01.086Z,2.53
2017-10-13T19:15:31.230Z,2.87
2017-10-13T19:18:00.637Z,2.20
2017-10-13T19:20:30.176Z,3.27
2017-10-13T19:22:59.541Z,3.20
2017-10-13T19:25:28.789Z,3.30
2017-10-13T19:27:57.652Z,3.03
2017-10-13T19:30:27.105Z,2.77
2017-10-13T19:32:57.231Z,3.30
2017-10-13T19:35:26.368Z,3.90
2017-10-13T19:37:55.709Z,3.50
2017-10-13T19:40:25.004Z,3.60
2017-10-13T19:42:54.103Z,3.50
2017-10-13T19:45:23.680Z,3.20
2017-10-13T19:47:52.978Z,3.43
2017-10-13T19:50:22.318Z,3.90
2017-10-13T19:52:51.649Z,3.33
2017-10-13T19:55:21.112Z,3.20
2017-10-13T19:57:50.184Z,4.17
2017-10-13T20:00:20.133Z,3.33
2017-10-13T20:02:50.405Z,4.03
2017-10-13T20:05:19.757Z,3.77
2017-10-13T20:07:49.114Z,4.20
2017-10-13T20:10:18.539Z,3.60
2017-10-13T20:12:48.072Z,4.20
2017-10-13T20:15:17.551Z,3.60
2017-10-13T20:17:47.037Z,3.50
2017-10-13T20:20:16.940Z,4.10
2017-10-13T20:22:46.215Z,3.00
2017-10-13T20:25:15.703Z,2.53
2017-10-13T20:27:45.853Z,2.13
2017-10-13T20:30:15.468Z,2.47
2017-10-13T20:32:44.652Z,2.33
2017-10-13T20:35:13.684Z,2.13
2017-10-13T20:37:42.986Z,3.10
2017-10-13T20:40:12.197Z,2.33
2017-10-13T20:42:42.827Z,2.17
2017-10-13T20:45:12.287Z,2.53
2017-10-13T20:47:42.366Z,2.50
2017-10-13T20:50:11.893Z,2.50
2017-10-13T20:52:41.302Z,2.50
2017-10-13T20:55:10.512Z,2.30
2017-10-13T20:57:40.145Z,2.20
2017-10-13T21:00:09.457Z,2.13
2017-10-13T21:02:38.820Z,2.10
2017-10-13T21:05:08.840Z,2.30
2017-10-13T21:07:38.143Z,2.80
2017-10-13T21:10:08.198Z,2.20
2017-10-13T21:12:37.321Z,2.83
2017-10-13T21:15:06.466Z,2.53
2017-10-13T21:17:35.914Z,3.47
2017-10-13T21:20:05.218Z,2.20
2017-10-13T21:22:34.507Z,1.80
2017-10-13T21:25:03.690Z,1.93
2017-10-13T21:27:33.149Z,2.33
2017-10-13T21:30:03.086Z,2.30
2017-10-13T21:32:32.184Z,2.90
2017-10-13T21:35:01.219Z,2.23
2017-10-13T21:37:30.723Z,2.10
2017-10-13T21:39:59.718Z,2.97
2017-10-13T21:42:28.906Z,3.10
2017-10-13T21:44:58.235Z,2.83
2017-10-13T21:47:27.388Z,3.20
2017-10-13T21:49:56.495Z,3.10
2017-10-13T21:52:25.833Z,2.70
2017-10-13T21:54:54.944Z,2.80
2017-10-13T21:57:25.027Z,2.13
2017-10-13T21:59:54.188Z,2.87
2017-10-13T22:02:23.694Z,2.40
2017-10-13T22:04:58.908Z,2.20
2017-10-13T22:07:30.193Z,2.10
2017-10-13T22:09:59.625Z,2.03
2017-10-13T22:12:28.803Z,2.07
2017-10-13T22:14:58.182Z,1.90
2017-10-13T22:17:30.386Z,2.07
2017-10-13T22:19:59.921Z,2.20
2017-10-13T22:22:29.077Z,1.73
2017-10-13T22:24:58.242Z,2.40
2017-10-13T22:27:27.465Z,2.00
2017-10-13T22:29:56.690Z,1.63
2017-10-13T22:32:25.948Z,2.17
2017-10-13T22:34:55.343Z,2.10
2017-10-13T22:37:24.677Z,2.20
2017-10-13T22:39:53.890Z,1.60
2017-10-13T22:42:23.237Z,1.80
2017-10-13T22:44:52.687Z,1.30
2017-10-13T22:47:22.060Z,1.27
2017-10-13T22:49:51.340Z,1.40
2017-10-13T22:52:21.157Z,1.90
2017-10-13T22:54:50.650Z,2.03
2017-10-13T22:57:20.808Z,1.73
2017-10-13T22:59:50.133Z,2.03
2017-10-13T23:02:19.505Z,1.90
2017-10-13T23:04:48.961Z,1.70
2017-10-13T23:07:18.036Z,1.93
2017-10-13T23:09:48.247Z,1.77
2017-10-13T23:12:17.660Z,1.60
2017-10-13T23:14:46.964Z,2.13
2017-10-13T23:17:16.099Z,1.93
2017-10-13T23:19:45.438Z,2.17
2017-10-13T23:22:14.868Z,2.20
2017-10-13T23:24:44.287Z,2.23
2017-10-13T23:27:14.038Z,2.40
2017-10-13T23:29:43.182Z,2.30
2017-10-13T23:32:12.448Z,2.60
2017-10-13T23:34:42.067Z,2.70
2017-10-13T23:37:11.219Z,2.90
2017-10-13T23:39:41.360Z,3.00
2017-10-13T23:42:10.885Z,3.23
2017-10-13T23:44:40.866Z,3.10
